KASH/ASH METAR and TAF weather

Enter ICAO airport designator
Station Type Date Time Source
KASH METAR 2020/09/19 01:56 UTC NOAA

KASH 190156Z AUTO 34012G18KT 10SM BKN060 12/M01 A3013 RMK AO2 SLP206 T01221006


Station Type Date Time Source
KASH Decoded METAR 2020/09/19 01:56 UTC NOAA

Nashua, Boire Field Airport, NH, United States (KASH) 42-46-54N 071-30-53W
Sep 18, 2020 - 09:56 PM EDT / 2020.09.19 0156 UTC
Wind: from the NNW (340 degrees) at 14 MPH (12 KT) gusting to 21 MPH (18 KT):0
Visibility: 10 mile(s):0
Sky conditions: mostly cloudy
Temperature: 54.0 F (12.2 C)
Dew Point: 30.9 F (-0.6 C)
Relative Humidity: 41%
Pressure (altimeter): 30.13 in. Hg (1020 hPa)
ob: KASH 190156Z AUTO 34012G18KT 10SM BKN060 12/M01 A3013 RMK AO2 SLP206 T01221006
cycle: 2

Station Type Date Time Source
KASH TAF UTC NOAA

Error!

Example: see airport list